Time,TemperatureF,DewpointF,PressureIn,WindDirection,WindDirectionDegrees,WindSpeedMPH,WindSpeedGustMPH,Humidity,HourlyPrecipIn,Conditions,Clouds,dailyrainin,SoftwareType,DateUTC
2013-07-17 00:01:00,52.2,19.2,30.09,NE,39,0.0,0.0,27,0.00,,---,0.00,VWS V14.01,2013-07-17 07:01:00,
2013-07-17 00:07:00,52.0,19.1,30.09,North,10,0.0,0.0,27,0.00,,---,0.00,VWS V14.01,2013-07-17 07:07:00,
2013-07-17 00:12:00,51.8,18.9,30.09,SE,129,0.0,0.0,27,0.00,,---,0.00,VWS V14.01,2013-07-17 07:12:00,
2013-07-17 00:18:00,51.6,20.0,30.09,SE,129,0.0,0.0,28,0.00,,---,0.00,VWS V14.01,2013-07-17 07:18:00,
2013-07-17 00:24:00,51.4,19.9,30.09,SE,129,0.0,0.0,28,0.00,,---,0.00,VWS V14.01,2013-07-17 07:24:00,
2013-07-17 00:29:00,50.9,19.4,30.09,SE,129,0.0,0.0,28,0.00,,---,0.00,VWS V14.01,2013-07-17 07:29:00,
2013-07-17 00:35:00,49.8,18.5,30.09,NE,38,2.7,2.7,28,0.00,,---,0.00,VWS V14.01,2013-07-17 07:35:00,
2013-07-17 00:40:00,49.8,18.5,30.09,NE,50,0.0,2.7,28,0.00,,---,0.00,VWS V14.01,2013-07-17 07:40:00,
2013-07-17 00:45:00,49.8,18.5,30.09,ESE,105,0.0,0.0,28,0.00,,---,0.00,VWS V14.01,2013-07-17 07:45:00,
2013-07-17 00:51:00,49.1,17.8,30.09,ESE,105,0.0,0.0,28,0.00,,---,0.00,VWS V14.01,2013-07-17 07:51:00,
2013-07-17 00:56:00,48.7,17.5,30.09,ESE,105,0.0,0.0,28,0.00,,---,0.00,VWS V14.01,2013-07-17 07:56:00,
2013-07-17 01:01:00,48.7,17.5,30.09,ESE,120,0.0,0.0,28,0.00,,---,0.00,VWS V14.01,2013-07-17 08:01:00,
2013-07-17 01:06:00,48.9,17.7,30.09,SE,128,0.0,0.0,28,0.00,,---,0.00,VWS V14.01,2013-07-17 08:06:00,
2013-07-17 01:11:00,48.7,17.5,30.09,SE,128,0.0,0.0,28,0.00,,---,0.00,VWS V14.01,2013-07-17 08:11:00,
2013-07-17 01:17:00,48.2,17.0,30.09,East,99,0.0,0.0,28,0.00,,---,0.00,VWS V14.01,2013-07-17 08:17:00,
2013-07-17 01:22:00,47.5,16.4,30.09,North,357,0.0,0.0,28,0.00,,---,0.00,VWS V14.01,2013-07-17 08:22:00,
2013-07-17 01:28:00,47.1,16.1,30.09,North,357,0.0,0.0,28,0.00,,---,0.00,VWS V14.01,2013-07-17 08:28:00,
2013-07-17 01:33:00,47.1,16.1,30.09,North,357,0.0,0.0,28,0.00,,---,0.00,VWS V14.01,2013-07-17 08:33:00,
2013-07-17 01:39:00,47.1,16.1,30.09,North,357,0.0,0.0,28,0.00,,---,0.00,VWS V14.01,2013-07-17 08:39:00,
2013-07-17 01:44:00,47.1,16.1,30.09,North,357,0.0,0.0,28,0.00,,---,0.00,VWS V14.01,2013-07-17 08:44:00,
2013-07-17 01:50:00,47.3,16.3,30.09,North,357,0.0,0.0,28,0.00,,---,0.00,VWS V14.01,2013-07-17 08:50:00,
2013-07-17 01:55:00,47.1,16.1,30.09,North,357,0.0,0.0,28,0.00,,---,0.00,VWS V14.01,2013-07-17 08:55:00,
2013-07-17 02:01:00,46.4,15.5,30.09,North,357,0.0,0.0,28,0.00,,---,0.00,VWS V14.01,2013-07-17 09:01:00,
2013-07-17 02:07:00,46.2,16.5,30.09,North,357,0.0,0.0,30,0.00,,---,0.00,VWS V14.01,2013-07-17 09:07:00,
2013-07-17 02:13:00,46.4,15.5,30.09,North,357,0.0,0.0,28,0.00,,---,0.00,VWS V14.01,2013-07-17 09:13:00,
2013-07-17 02:19:00,46.0,16.4,30.09,North,357,0.0,0.0,30,0.00,,---,0.00,VWS V14.01,2013-07-17 09:19:00,
2013-07-17 02:24:00,45.3,15.7,30.09,North,357,0.0,0.0,30,0.00,,---,0.00,VWS V14.01,2013-07-17 09:24:00,
2013-07-17 02:30:00,45.3,15.7,30.09,North,357,0.0,0.0,30,0.00,,---,0.00,VWS V14.01,2013-07-17 09:30:00,
2013-07-17 02:36:00,45.5,15.9,30.09,SSE,149,0.0,0.0,30,0.00,,---,0.00,VWS V14.01,2013-07-17 09:36:00,
2013-07-17 02:42:00,45.3,15.7,30.09,SSE,149,0.0,0.0,30,0.00,,---,0.00,VWS V14.01,2013-07-17 09:42:00,
2013-07-17 02:48:00,44.6,15.1,30.09,SE,131,0.0,0.0,30,0.00,,---,0.00,VWS V14.01,2013-07-17 09:48:00,
2013-07-17 02:53:00,44.4,14.9,30.09,SE,131,0.0,0.0,30,0.00,,---,0.00,VWS V14.01,2013-07-17 09:53:00,
2013-07-17 02:59:00,44.6,15.1,30.09,East,85,0.0,0.0,30,0.00,,---,0.00,VWS V14.01,2013-07-17 09:59:00,
2013-07-17 03:05:00,44.2,14.8,30.09,East,85,0.0,0.0,30,0.00,,---,0.00,VWS V14.01,2013-07-17 10:05:00,
2013-07-17 03:10:00,44.1,14.6,30.09,East,85,0.0,0.0,30,0.00,,---,0.00,VWS V14.01,2013-07-17 10:10:00,
2013-07-17 03:16:00,44.2,14.8,30.09,East,85,0.0,0.0,30,0.00,,---,0.00,VWS V14.01,2013-07-17 10:16:00,
2013-07-17 03:22:00,44.2,14.8,30.06,East,85,0.0,0.0,30,0.00,,---,0.00,VWS V14.01,2013-07-17 10:22:00,
2013-07-17 03:27:00,44.1,14.6,30.06,East,85,0.0,0.0,30,0.00,,---,0.00,VWS V14.01,2013-07-17 10:27:00,
2013-07-17 03:33:00,43.9,14.5,30.06,East,85,0.0,0.0,30,0.00,,---,0.00,VWS V14.01,2013-07-17 10:33:00,
2013-07-17 03:38:00,43.5,14.2,30.06,East,85,0.0,0.0,30,0.00,,---,0.00,VWS V14.01,2013-07-17 10:38:00,
2013-07-17 03:44:00,43.3,14.0,30.06,East,85,0.0,0.0,30,0.00,,---,0.00,VWS V14.01,2013-07-17 10:44:00,
2013-07-17 03:50:00,43.3,14.0,30.06,East,85,0.0,0.0,30,0.00,,---,0.00,VWS V14.01,2013-07-17 10:50:00,
2013-07-17 03:55:00,43.3,14.0,30.09,East,85,0.0,0.0,30,0.00,,---,0.00,VWS V14.01,2013-07-17 10:55:00,
2013-07-17 04:01:00,43.0,13.7,30.09,East,85,0.0,0.0,30,0.00,,---,0.00,VWS V14.01,2013-07-17 11:01:00,
2013-07-17 04:07:00,43.2,13.8,30.09,SE,131,0.0,0.0,30,0.00,,---,0.00,VWS V14.01,2013-07-17 11:07:00,
2013-07-17 04:12:00,43.2,13.8,30.09,SE,131,0.0,0.0,30,0.00,,---,0.00,VWS V14.01,2013-07-17 11:12:00,
2013-07-17 04:18:00,43.0,13.7,30.09,SE,131,0.0,0.0,30,0.00,,---,0.00,VWS V14.01,2013-07-17 11:18:00,
2013-07-17 04:23:00,42.6,14.5,30.09,SE,131,0.0,0.0,32,0.00,,---,0.00,VWS V14.01,2013-07-17 11:23:00,
2013-07-17 04:29:00,42.4,14.3,30.09,East,86,3.1,3.1,32,0.00,,---,0.00,VWS V14.01,2013-07-17 11:29:00,
2013-07-17 04:35:00,42.3,14.2,30.06,East,96,0.0,0.0,32,0.00,,---,0.00,VWS V14.01,2013-07-17 11:35:00,
2013-07-17 04:40:00,41.9,13.9,30.06,East,96,0.0,0.0,32,0.00,,---,0.00,VWS V14.01,2013-07-17 11:40:00,
2013-07-17 04:45:00,41.7,13.7,30.06,East,96,0.0,0.0,32,0.00,,---,0.00,VWS V14.01,2013-07-17 11:45:00,
2013-07-17 04:51:00,41.7,13.7,30.09,East,96,0.0,0.0,32,0.00,,---,0.00,VWS V14.01,2013-07-17 11:51:00,
2013-07-17 04:56:00,41.9,13.9,30.09,East,96,0.0,0.0,32,0.00,,---,0.00,VWS V14.01,2013-07-17 11:56:00,
2013-07-17 05:02:00,42.3,14.2,30.09,ESE,118,0.0,0.0,32,0.00,,---,0.00,VWS V14.01,2013-07-17 12:02:00,
2013-07-17 05:07:00,41.7,13.7,30.09,ESE,118,0.0,0.0,32,0.00,,---,0.00,VWS V14.01,2013-07-17 12:07:00,
2013-07-17 05:12:00,41.5,13.5,30.09,ESE,118,0.0,0.0,32,0.00,,---,0.00,VWS V14.01,2013-07-17 12:12:00,
2013-07-17 05:18:00,41.2,13.2,30.09,ESE,118,0.0,0.0,32,0.00,,---,0.00,VWS V14.01,2013-07-17 12:18:00,
2013-07-17 05:24:00,41.5,13.5,30.09,ESE,118,0.0,0.0,32,0.00,,---,0.00,VWS V14.01,2013-07-17 12:24:00,
2013-07-17 05:29:00,41.2,13.2,30.09,ESE,118,0.0,0.0,32,0.00,,---,0.00,VWS V14.01,2013-07-17 12:29:00,
2013-07-17 05:34:00,41.0,13.1,30.09,ESE,116,0.0,0.0,32,0.00,,---,0.00,VWS V14.01,2013-07-17 12:34:00,
2013-07-17 05:40:00,41.0,13.1,30.09,East,87,0.0,0.0,32,0.00,,---,0.00,VWS V14.01,2013-07-17 12:40:00,
2013-07-17 05:46:00,40.6,12.7,30.09,South,187,0.0,0.0,32,0.00,,---,0.00,VWS V14.01,2013-07-17 12:46:00,
2013-07-17 05:52:00,40.6,12.7,30.09,South,187,0.0,0.0,32,0.00,,---,0.00,VWS V14.01,2013-07-17 12:52:00,
2013-07-17 05:58:00,40.6,12.7,30.09,East,96,0.0,0.0,32,0.00,,---,0.00,VWS V14.01,2013-07-17 12:58:00,
2013-07-17 06:03:00,40.8,12.9,30.09,SSE,168,0.0,0.0,32,0.00,,---,0.00,VWS V14.01,2013-07-17 13:03:00,
2013-07-17 06:09:00,41.0,13.1,30.09,SSE,168,0.0,0.0,32,0.00,,---,0.00,VWS V14.01,2013-07-17 13:09:00,
2013-07-17 06:14:00,41.2,13.2,30.09,SSE,168,0.0,0.0,32,0.00,,---,0.00,VWS V14.01,2013-07-17 13:14:00,
2013-07-17 06:18:00,41.5,13.5,30.09,SW,231,0.0,0.0,32,0.00,,---,0.00,VWS V14.01,2013-07-17 13:18:00,
2013-07-17 06:23:00,42.3,14.2,30.09,WSW,254,0.0,0.0,32,0.00,,---,0.00,VWS V14.01,2013-07-17 13:23:00,
2013-07-17 06:29:00,43.0,16.9,30.09,ESE,116,0.0,0.0,34,0.00,,---,0.00,VWS V14.01,2013-07-17 13:29:00,
2013-07-17 06:35:00,43.7,17.5,30.09,ENE,63,4.0,4.0,34,0.00,,---,0.00,VWS V14.01,2013-07-17 13:35:00,
2013-07-17 06:40:00,44.6,17.3,30.09,ENE,69,0.0,0.0,33,0.00,,---,0.00,VWS V14.01,2013-07-17 13:40:00,
2013-07-17 06:46:00,45.9,18.4,30.09,NNW,331,0.0,0.0,33,0.00,,---,0.00,VWS V14.01,2013-07-17 13:46:00,
2013-07-17 06:51:00,46.8,19.2,30.09,NW,305,0.0,0.0,33,0.00,,---,0.00,VWS V14.01,2013-07-17 13:51:00,
2013-07-17 06:56:00,47.5,19.8,30.09,NW,318,0.0,0.0,33,0.00,,---,0.00,VWS V14.01,2013-07-17 13:56:00,
2013-07-17 07:02:00,48.4,19.5,30.09,SW,225,0.0,0.0,32,0.00,,---,0.00,VWS V14.01,2013-07-17 14:02:00,
2013-07-17 07:08:00,49.8,20.8,30.09,SW,225,0.0,0.0,32,0.00,,---,0.00,VWS V14.01,2013-07-17 14:08:00,
2013-07-17 07:14:00,51.3,22.0,30.09,SW,219,0.0,0.0,32,0.00,,---,0.00,VWS V14.01,2013-07-17 14:14:00,
2013-07-17 07:19:00,52.5,23.2,30.09,WSW,241,0.0,0.0,32,0.00,,---,0.00,VWS V14.01,2013-07-17 14:19:00,
2013-07-17 07:25:00,54.5,23.7,30.12,WSW,241,0.0,0.0,30,0.00,,---,0.00,VWS V14.01,2013-07-17 14:25:00,
2013-07-17 07:31:00,56.7,25.6,30.12,WSW,241,0.0,0.0,30,0.00,,---,0.00,VWS V14.01,2013-07-17 14:31:00,
2013-07-17 07:36:00,58.5,25.9,30.12,SSW,212,0.0,0.0,28,0.00,,---,0.00,VWS V14.01,2013-07-17 14:36:00,
2013-07-17 07:41:00,60.1,27.3,30.12,WNW,291,0.0,0.0,28,0.00,,---,0.00,VWS V14.01,2013-07-17 14:41:00,
2013-07-17 07:47:00,62.2,29.2,30.12,SW,216,0.0,0.0,28,0.00,,---,0.00,VWS V14.01,2013-07-17 14:47:00,
2013-07-17 07:53:00,64.0,29.4,30.12,South,178,0.0,0.0,27,0.00,,---,0.00,VWS V14.01,2013-07-17 14:53:00,
2013-07-17 07:58:00,65.8,31.0,30.12,South,178,0.0,0.0,27,0.00,,---,0.00,VWS V14.01,2013-07-17 14:58:00,
2013-07-17 08:04:00,67.6,31.1,30.12,South,174,0.0,0.0,26,0.00,,---,0.00,VWS V14.01,2013-07-17 15:04:00,
2013-07-17 08:09:00,68.9,32.2,30.09,South,173,0.0,0.0,26,0.00,,---,0.00,VWS V14.01,2013-07-17 15:09:00,
2013-07-17 08:14:00,70.3,33.4,30.09,South,174,0.0,0.0,26,0.00,,---,0.00,VWS V14.01,2013-07-17 15:14:00,
2013-07-17 08:20:00,72.1,33.4,30.09,South,174,0.0,0.0,24,0.00,,---,0.00,VWS V14.01,2013-07-17 15:20:00,
2013-07-17 08:25:00,73.8,34.8,30.12,West,274,0.0,0.0,24,0.00,,---,0.00,VWS V14.01,2013-07-17 15:25:00,
2013-07-17 08:31:00,75.6,34.6,30.12,West,274,0.0,0.0,22,0.00,,---,0.00,VWS V14.01,2013-07-17 15:31:00,
2013-07-17 08:36:00,76.6,35.5,30.12,West,274,0.0,0.0,22,0.00,,---,0.00,VWS V14.01,2013-07-17 15:36:00,
2013-07-17 08:42:00,77.9,36.6,30.12,WNW,285,3.1,3.1,22,0.00,,---,0.00,VWS V14.01,2013-07-17 15:42:00,
2013-07-17 08:47:00,78.8,37.3,30.12,SW,216,6.3,6.3,22,0.00,,---,0.00,VWS V14.01,2013-07-17 15:47:00,
2013-07-17 08:52:00,80.1,38.4,30.12,WNW,290,2.7,3.6,22,0.00,,---,0.00,VWS V14.01,2013-07-17 15:52:00,
2013-07-17 08:57:00,80.4,38.7,30.12,West,277,4.9,5.4,22,0.00,,---,0.00,VWS V14.01,2013-07-17 15:57:00,
2013-07-17 09:03:00,81.0,37.4,30.12,West,274,5.4,5.8,21,0.00,,---,0.00,VWS V14.01,2013-07-17 16:03:00,
2013-07-17 09:09:00,81.9,38.1,30.12,SW,229,5.4,6.3,21,0.00,,---,0.00,VWS V14.01,2013-07-17 16:09:00,
2013-07-17 09:14:00,82.6,38.7,30.12,NW,310,3.6,5.8,21,0.00,,---,0.00,VWS V14.01,2013-07-17 16:14:00,
2013-07-17 09:20:00,82.8,38.9,30.12,SW,226,5.8,5.8,21,0.00,,---,0.00,VWS V14.01,2013-07-17 16:20:00,
2013-07-17 09:26:00,83.7,39.6,30.12,SW,222,2.7,6.3,21,0.00,,---,0.00,VWS V14.01,2013-07-17 16:26:00,
2013-07-17 09:31:00,84.0,39.9,30.12,SW,225,5.4,8.1,21,0.00,,---,0.00,VWS V14.01,2013-07-17 16:31:00,
2013-07-17 09:37:00,84.7,38.6,30.12,WSW,247,6.3,6.3,20,0.00,,---,0.00,VWS V14.01,2013-07-17 16:37:00,
2013-07-17 09:42:00,85.3,39.1,30.12,SSW,196,6.3,6.7,20,0.00,,---,0.00,VWS V14.01,2013-07-17 16:42:00,
2013-07-17 09:48:00,85.3,39.1,30.12,WSW,256,5.4,5.8,20,0.00,,---,0.00,VWS V14.01,2013-07-17 16:48:00,
2013-07-17 09:54:00,85.5,39.2,30.12,WSW,238,8.1,8.1,20,0.00,,---,0.00,VWS V14.01,2013-07-17 16:54:00,
2013-07-17 09:59:00,85.8,39.5,30.12,WSW,238,6.3,7.6,20,0.00,,---,0.00,VWS V14.01,2013-07-17 16:59:00,
2013-07-17 10:05:00,86.5,40.1,30.12,WSW,246,5.4,8.7,20,0.00,,---,0.00,VWS V14.01,2013-07-17 17:05:00,
2013-07-17 10:10:00,86.9,40.4,30.12,WNW,293,5.4,8.7,20,0.00,,---,0.00,VWS V14.01,2013-07-17 17:10:00,
2013-07-17 10:15:00,86.9,40.4,30.12,West,260,4.9,6.3,20,0.00,,---,0.00,VWS V14.01,2013-07-17 17:15:00,
2013-07-17 10:20:00,86.7,40.2,30.12,West,262,11.0,11.0,20,0.00,,---,0.00,VWS V14.01,2013-07-17 17:20:00,
2013-07-17 10:26:00,85.8,39.5,30.12,WSW,258,8.3,10.1,20,0.00,,---,0.00,VWS V14.01,2013-07-17 17:26:00,
2013-07-17 10:31:00,85.1,38.9,30.12,WSW,246,8.3,8.3,20,0.00,,---,0.00,VWS V14.01,2013-07-17 17:31:00,
2013-07-17 10:37:00,85.8,39.5,30.12,WSW,256,5.8,8.3,20,0.00,,---,0.00,VWS V14.01,2013-07-17 17:37:00,
2013-07-17 10:43:00,86.0,39.7,30.12,West,277,6.3,8.1,20,0.00,,---,0.00,VWS V14.01,2013-07-17 17:43:00,
2013-07-17 10:49:00,87.4,40.8,30.12,SSW,206,8.1,8.7,20,0.00,,---,0.00,VWS V14.01,2013-07-17 17:49:00,
2013-07-17 10:54:00,88.5,41.7,30.12,West,261,8.7,10.1,20,0.00,,---,0.00,VWS V14.01,2013-07-17 17:54:00,
2013-07-17 11:00:00,87.8,41.1,30.12,WNW,294,6.3,8.3,20,0.00,,---,0.00,VWS V14.01,2013-07-17 18:00:00,
2013-07-17 11:06:00,88.5,41.7,30.12,WNW,284,7.6,7.6,20,0.00,,---,0.00,VWS V14.01,2013-07-17 18:06:00,
2013-07-17 11:12:00,88.2,41.4,30.12,WSW,244,5.4,7.6,20,0.00,,---,0.00,VWS V14.01,2013-07-17 18:12:00,
2013-07-17 11:18:00,88.5,41.7,30.12,WNW,285,5.4,8.1,20,0.00,,---,0.00,VWS V14.01,2013-07-17 18:18:00,
2013-07-17 11:23:00,88.9,42.0,30.12,SSW,197,8.1,10.5,20,0.00,,---,0.00,VWS V14.01,2013-07-17 18:23:00,
2013-07-17 11:29:00,89.2,42.3,30.12,WNW,288,4.0,7.6,20,0.00,,---,0.00,VWS V14.01,2013-07-17 18:29:00,
2013-07-17 11:34:00,89.1,42.2,30.12,SSW,204,5.8,11.0,20,0.00,,---,0.00,VWS V14.01,2013-07-17 18:34:00,
2013-07-17 11:40:00,89.2,42.3,30.12,West,263,6.3,8.1,20,0.00,,---,0.00,VWS V14.01,2013-07-17 18:40:00,
2013-07-17 11:45:00,90.0,40.8,30.12,SSW,213,8.1,10.5,18,0.00,,---,0.00,VWS V14.01,2013-07-17 18:45:00,
2013-07-17 11:51:00,90.0,40.8,30.12,SW,231,12.3,12.8,18,0.00,,---,0.00,VWS V14.01,2013-07-17 18:51:00,
2013-07-17 11:56:00,91.0,41.7,30.12,West,272,10.5,10.5,18,0.00,,---,0.00,VWS V14.01,2013-07-17 18:56:00,
2013-07-17 12:02:00,90.3,41.1,30.12,WNW,286,10.5,11.0,18,0.00,,---,0.00,VWS V14.01,2013-07-17 19:02:00,
2013-07-17 12:08:00,89.6,40.5,30.12,SW,236,11.0,15.0,18,0.00,,---,0.00,VWS V14.01,2013-07-17 19:08:00,
2013-07-17 12:14:00,90.1,41.0,30.12,WSW,252,8.3,13.2,18,0.00,,---,0.00,VWS V14.01,2013-07-17 19:14:00,
2013-07-17 12:19:00,89.8,40.7,30.12,West,276,11.9,11.9,18,0.00,,---,0.00,VWS V14.01,2013-07-17 19:19:00,
2013-07-17 12:25:00,90.7,41.4,30.12,West,260,8.7,10.1,18,0.00,,---,0.00,VWS V14.01,2013-07-17 19:25:00,
2013-07-17 12:30:00,90.1,41.0,30.12,NW,321,10.1,10.1,18,0.00,,---,0.00,VWS V14.01,2013-07-17 19:30:00,
2013-07-17 12:36:00,90.9,41.5,30.12,WSW,248,5.8,10.1,18,0.00,,---,0.00,VWS V14.01,2013-07-17 19:36:00,
2013-07-17 12:41:00,90.1,41.0,30.12,West,273,5.4,7.6,18,0.00,,---,0.00,VWS V14.01,2013-07-17 19:41:00,
2013-07-17 12:46:00,90.1,41.0,30.12,South,189,6.3,10.1,18,0.00,,---,0.00,VWS V14.01,2013-07-17 19:46:00,
2013-07-17 12:52:00,91.2,41.8,30.12,WSW,255,8.7,15.0,18,0.00,,---,0.00,VWS V14.01,2013-07-17 19:52:00,
2013-07-17 12:57:00,90.7,41.4,30.12,West,264,10.1,10.1,18,0.00,,---,0.00,VWS V14.01,2013-07-17 19:57:00,
2013-07-17 13:02:00,90.9,41.5,30.12,West,275,8.3,10.5,18,0.00,,---,0.00,VWS V14.01,2013-07-17 20:02:00,
2013-07-17 13:08:00,89.8,40.7,30.12,West,263,5.8,12.8,18,0.00,,---,0.00,VWS V14.01,2013-07-17 20:08:00,
2013-07-17 13:14:00,90.1,41.0,30.12,WSW,247,12.8,12.8,18,0.00,,---,0.00,VWS V14.01,2013-07-17 20:14:00,
2013-07-17 13:19:00,91.4,42.0,30.12,SW,222,12.8,13.6,18,0.00,,---,0.00,VWS V14.01,2013-07-17 20:19:00,
2013-07-17 13:25:00,92.5,42.9,30.12,SW,234,7.6,13.2,18,0.00,,---,0.00,VWS V14.01,2013-07-17 20:25:00,
2013-07-17 13:30:00,93.0,43.3,30.12,WSW,253,10.1,13.2,18,0.00,,---,0.00,VWS V14.01,2013-07-17 20:30:00,
2013-07-17 13:36:00,92.3,42.7,30.09,West,274,13.2,15.4,18,0.00,,---,0.00,VWS V14.01,2013-07-17 20:36:00,
2013-07-17 13:42:00,92.3,42.7,30.09,SW,235,16.3,17.4,18,0.00,,---,0.00,VWS V14.01,2013-07-17 20:42:00,
2013-07-17 13:48:00,91.9,42.4,30.09,WSW,256,8.1,8.1,18,0.00,,---,0.00,VWS V14.01,2013-07-17 20:48:00,
2013-07-17 13:54:00,91.0,41.7,30.09,WNW,300,6.3,8.7,18,0.00,,---,0.00,VWS V14.01,2013-07-17 20:54:00,
2013-07-17 14:00:00,90.9,41.5,30.09,NW,312,8.1,10.5,18,0.00,,---,0.00,VWS V14.01,2013-07-17 21:00:00,
2013-07-17 14:06:00,91.6,42.1,30.09,WSW,258,11.9,15.0,18,0.00,,---,0.00,VWS V14.01,2013-07-17 21:06:00,
2013-07-17 14:11:00,92.1,42.6,30.09,West,280,17.4,17.4,18,0.00,,---,0.00,VWS V14.01,2013-07-17 21:11:00,
2013-07-17 14:17:00,90.7,41.4,30.09,WNW,296,8.3,9.6,18,0.00,,---,0.00,VWS V14.01,2013-07-17 21:17:00,
2013-07-17 14:22:00,91.9,42.4,30.09,West,268,10.5,11.0,18,0.00,,---,0.00,VWS V14.01,2013-07-17 21:22:00,
2013-07-17 14:28:00,92.7,43.0,30.09,WSW,253,8.7,9.2,18,0.00,,---,0.00,VWS V14.01,2013-07-17 21:28:00,
2013-07-17 14:33:00,92.7,43.0,30.09,West,259,8.7,12.3,18,0.00,,---,0.00,VWS V14.01,2013-07-17 21:33:00,
2013-07-17 14:39:00,93.0,43.3,30.09,NW,308,5.8,12.8,18,0.00,,---,0.00,VWS V14.01,2013-07-17 21:39:00,
2013-07-17 14:44:00,92.5,42.9,30.09,WSW,256,10.1,13.2,18,0.00,,---,0.00,VWS V14.01,2013-07-17 21:44:00,
2013-07-17 14:50:00,93.7,41.6,30.09,NW,307,8.3,8.3,16,0.00,,---,0.00,VWS V14.01,2013-07-17 21:50:00,
2013-07-17 14:55:00,93.4,41.3,30.09,West,261,11.0,15.0,16,0.00,,---,0.00,VWS V14.01,2013-07-17 21:55:00,
2013-07-17 15:01:00,92.7,43.0,30.09,WNW,295,12.8,15.9,18,0.00,,---,0.00,VWS V14.01,2013-07-17 22:01:00,
2013-07-17 15:06:00,93.2,41.2,30.09,SW,227,11.0,11.4,16,0.00,,---,0.00,VWS V14.01,2013-07-17 22:06:00,
2013-07-17 15:12:00,93.7,41.6,30.09,SW,231,13.2,14.1,16,0.00,,---,0.00,VWS V14.01,2013-07-17 22:12:00,
2013-07-17 15:18:00,92.5,42.9,30.09,NW,306,8.7,14.5,18,0.00,,---,0.00,VWS V14.01,2013-07-17 22:18:00,
2013-07-17 15:24:00,91.9,42.4,30.09,SW,233,13.2,13.2,18,0.00,,---,0.00,VWS V14.01,2013-07-17 22:24:00,
2013-07-17 15:29:00,92.5,42.9,30.09,WNW,293,11.9,11.9,18,0.00,,---,0.00,VWS V14.01,2013-07-17 22:29:00,
2013-07-17 15:35:00,92.3,42.7,30.09,West,261,15.4,15.4,18,0.00,,---,0.00,VWS V14.01,2013-07-17 22:35:00,
2013-07-17 15:40:00,92.5,42.9,30.09,WNW,297,9.6,13.2,18,0.00,,---,0.00,VWS V14.01,2013-07-17 22:40:00,
2013-07-17 15:46:00,90.9,41.5,30.09,WNW,291,10.5,12.8,18,0.00,,---,0.00,VWS V14.01,2013-07-17 22:46:00,
2013-07-17 15:51:00,91.2,41.8,30.09,SW,234,14.1,14.1,18,0.00,,---,0.00,VWS V14.01,2013-07-17 22:51:00,
2013-07-17 15:57:00,93.2,41.2,30.09,WSW,250,8.1,13.2,16,0.00,,---,0.00,VWS V14.01,2013-07-17 22:57:00,
2013-07-17 16:02:00,93.9,41.8,30.09,West,259,13.2,14.5,16,0.00,,---,0.00,VWS V14.01,2013-07-17 23:02:00,
2013-07-17 16:08:00,92.8,43.2,30.09,NW,310,13.2,15.4,18,0.00,,---,0.00,VWS V14.01,2013-07-17 23:08:00,
2013-07-17 16:13:00,92.1,42.6,30.09,WSW,252,11.0,12.8,18,0.00,,---,0.00,VWS V14.01,2013-07-17 23:13:00,
2013-07-17 16:19:00,91.6,42.1,30.09,WNW,293,11.0,11.0,18,0.00,,---,0.00,VWS V14.01,2013-07-17 23:19:00,
2013-07-17 16:24:00,91.6,42.1,30.09,West,271,7.6,11.0,18,0.00,,---,0.00,VWS V14.01,2013-07-17 23:24:00,
2013-07-17 16:30:00,91.8,42.3,30.09,West,270,12.3,12.3,18,0.00,,---,0.00,VWS V14.01,2013-07-17 23:30:00,
2013-07-17 16:36:00,90.9,41.5,30.06,NW,316,11.0,11.0,18,0.00,,---,0.00,VWS V14.01,2013-07-17 23:36:00,
2013-07-17 16:41:00,90.0,40.8,30.06,WNW,296,8.3,11.0,18,0.00,,---,0.00,VWS V14.01,2013-07-17 23:41:00,
2013-07-17 16:47:00,90.7,41.4,30.06,WNW,282,6.3,10.5,18,0.00,,---,0.00,VWS V14.01,2013-07-17 23:47:00,
2013-07-17 16:52:00,91.0,41.7,30.06,West,260,8.7,12.3,18,0.00,,---,0.00,VWS V14.01,2013-07-17 23:52:00,
2013-07-17 16:58:00,90.7,41.4,30.06,NW,320,8.1,14.5,18,0.00,,---,0.00,VWS V14.01,2013-07-17 23:58:00,
2013-07-17 17:04:00,90.0,40.8,30.06,WSW,256,10.5,13.6,18,0.00,,---,0.00,VWS V14.01,2013-07-18 00:04:00,
2013-07-17 17:09:00,89.6,40.5,30.06,WSW,256,15.0,15.0,18,0.00,,---,0.00,VWS V14.01,2013-07-18 00:09:00,
2013-07-17 17:15:00,89.2,42.3,30.06,WSW,252,8.1,11.0,20,0.00,,---,0.00,VWS V14.01,2013-07-18 00:15:00,
2013-07-17 17:21:00,89.1,42.2,30.06,WSW,254,12.8,12.8,20,0.00,,---,0.00,VWS V14.01,2013-07-18 00:21:00,
2013-07-17 17:27:00,89.6,40.5,30.06,West,259,15.0,15.4,18,0.00,,---,0.00,VWS V14.01,2013-07-18 00:27:00,
2013-07-17 17:32:00,88.5,41.7,30.06,West,269,8.7,11.0,20,0.00,,---,0.00,VWS V14.01,2013-07-18 00:32:00,
2013-07-17 17:38:00,87.4,40.8,30.06,WNW,299,10.1,11.0,20,0.00,,---,0.00,VWS V14.01,2013-07-18 00:38:00,
2013-07-17 17:44:00,87.4,40.8,30.06,West,268,12.8,12.8,20,0.00,,---,0.00,VWS V14.01,2013-07-18 00:44:00,
2013-07-17 17:49:00,87.4,40.8,30.06,West,272,5.4,13.2,20,0.00,,---,0.00,VWS V14.01,2013-07-18 00:49:00,
2013-07-17 17:54:00,86.9,40.4,30.06,WSW,247,8.7,8.7,20,0.00,,---,0.00,VWS V14.01,2013-07-18 00:54:00,
2013-07-17 17:59:00,86.7,40.2,30.06,West,271,10.5,10.5,20,0.00,,---,0.00,VWS V14.01,2013-07-18 00:59:00,
2013-07-17 18:04:00,86.9,40.4,30.06,WNW,286,10.1,10.1,20,0.00,,---,0.00,VWS V14.01,2013-07-18 01:04:00,
2013-07-17 18:10:00,87.1,40.5,30.06,West,265,12.8,12.8,20,0.00,,---,0.00,VWS V14.01,2013-07-18 01:10:00,
2013-07-17 18:16:00,86.4,40.0,30.06,West,260,10.1,11.0,20,0.00,,---,0.00,VWS V14.01,2013-07-18 01:16:00,
2013-07-17 18:21:00,85.8,39.5,30.06,West,264,10.1,13.6,20,0.00,,---,0.00,VWS V14.01,2013-07-18 01:21:00,
2013-07-17 18:27:00,84.6,38.5,30.06,West,264,14.1,14.1,20,0.00,,---,0.00,VWS V14.01,2013-07-18 01:27:00,
2013-07-17 18:33:00,84.6,38.5,30.06,West,265,13.2,13.2,20,0.00,,---,0.00,VWS V14.01,2013-07-18 01:33:00,
2013-07-17 18:38:00,84.7,38.6,30.06,West,278,7.2,10.1,20,0.00,,---,0.00,VWS V14.01,2013-07-18 01:38:00,
2013-07-17 18:44:00,84.6,38.5,30.06,West,265,7.6,12.3,20,0.00,,---,0.00,VWS V14.01,2013-07-18 01:44:00,
2013-07-17 18:49:00,84.6,38.5,30.06,WSW,252,8.3,10.5,20,0.00,,---,0.00,VWS V14.01,2013-07-18 01:49:00,
2013-07-17 18:55:00,83.8,39.8,30.06,West,259,7.6,8.7,21,0.00,,---,0.00,VWS V14.01,2013-07-18 01:55:00,
2013-07-17 19:01:00,82.6,38.7,30.06,WSW,245,9.2,10.1,21,0.00,,---,0.00,VWS V14.01,2013-07-18 02:01:00,
2013-07-17 19:07:00,83.3,39.3,30.06,WSW,238,8.7,9.2,21,0.00,,---,0.00,VWS V14.01,2013-07-18 02:07:00,
2013-07-17 19:13:00,83.5,39.5,30.06,WSW,249,11.4,11.4,21,0.00,,---,0.00,VWS V14.01,2013-07-18 02:13:00,
2013-07-17 19:19:00,82.6,38.7,30.06,WSW,252,9.6,11.0,21,0.00,,---,0.00,VWS V14.01,2013-07-18 02:19:00,
2013-07-17 19:24:00,81.5,37.8,30.09,WSW,243,12.8,12.8,21,0.00,,---,0.00,VWS V14.01,2013-07-18 02:24:00,
2013-07-17 19:30:00,79.9,38.2,30.09,WSW,256,11.0,12.3,22,0.00,,---,0.00,VWS V14.01,2013-07-18 02:30:00,
2013-07-17 19:35:00,79.3,37.8,30.09,West,265,6.3,11.0,22,0.00,,---,0.00,VWS V14.01,2013-07-18 02:35:00,
2013-07-17 19:41:00,79.0,37.5,30.09,West,259,8.1,8.1,22,0.00,,---,0.00,VWS V14.01,2013-07-18 02:41:00,
2013-07-17 19:47:00,78.3,33.3,30.09,WSW,256,10.1,11.4,20,0.00,,---,0.00,VWS V14.01,2013-07-18 02:47:00,
2013-07-17 19:53:00,77.0,32.3,30.09,WSW,254,10.1,10.1,20,0.00,,---,0.00,VWS V14.01,2013-07-18 02:53:00,
2013-07-17 19:59:00,76.5,31.8,30.09,WSW,257,6.3,8.7,20,0.00,,---,0.00,VWS V14.01,2013-07-18 02:59:00,
2013-07-17 20:04:00,76.6,32.0,30.09,WSW,241,8.1,8.1,20,0.00,,---,0.00,VWS V14.01,2013-07-18 03:04:00,
2013-07-17 20:09:00,76.1,31.5,30.09,SW,236,6.3,6.7,20,0.00,,---,0.00,VWS V14.01,2013-07-18 03:09:00,
2013-07-17 20:14:00,75.6,31.1,30.09,WSW,239,3.1,3.1,20,0.00,,---,0.00,VWS V14.01,2013-07-18 03:14:00,
2013-07-17 20:20:00,74.8,30.5,30.09,SW,225,3.1,3.1,20,0.00,,---,0.00,VWS V14.01,2013-07-18 03:20:00,
2013-07-17 20:25:00,74.3,30.0,30.09,SW,234,3.1,3.1,20,0.00,,---,0.00,VWS V14.01,2013-07-18 03:25:00,
2013-07-17 20:30:00,74.3,30.0,30.09,SW,216,3.1,3.1,20,0.00,,---,0.00,VWS V14.01,2013-07-18 03:30:00,
2013-07-17 20:35:00,73.9,29.8,30.09,SW,216,0.0,0.0,20,0.00,,---,0.00,VWS V14.01,2013-07-18 03:35:00,
2013-07-17 20:40:00,73.4,29.3,30.09,SW,225,0.0,0.0,20,0.00,,---,0.00,VWS V14.01,2013-07-18 03:40:00,
2013-07-17 20:46:00,72.9,30.7,30.09,WSW,240,2.2,3.6,21,0.00,,---,0.00,VWS V14.01,2013-07-18 03:46:00,
2013-07-17 20:52:00,72.5,30.4,30.09,WSW,241,2.7,3.6,21,0.00,,---,0.00,VWS V14.01,2013-07-18 03:52:00,
2013-07-17 20:57:00,71.8,29.8,30.09,South,189,3.6,3.6,21,0.00,,---,0.00,VWS V14.01,2013-07-18 03:57:00,
2013-07-17 21:01:00,71.4,29.5,30.09,South,178,2.7,3.1,21,0.00,,---,0.00,VWS V14.01,2013-07-18 04:01:00,
2013-07-17 21:02:00,71.4,29.5,30.09,South,172,3.1,3.1,21,0.00,,---,0.00,VWS V14.01,2013-07-18 04:02:00,
2013-07-17 21:04:00,71.2,29.3,30.09,SE,142,4.0,4.5,21,0.00,,---,0.00,VWS V14.01,2013-07-18 04:04:00,
2013-07-17 21:05:00,71.1,29.2,30.09,SE,142,3.1,4.0,21,0.00,,---,0.00,VWS V14.01,2013-07-18 04:05:00,
2013-07-17 21:06:00,71.1,29.2,30.09,SSE,153,2.7,3.1,21,0.00,,---,0.00,VWS V14.01,2013-07-18 04:06:00,
2013-07-17 21:11:00,70.3,28.6,30.09,SSE,157,2.7,2.7,21,0.00,,---,0.00,VWS V14.01,2013-07-18 04:11:00,
2013-07-17 21:18:00,70.0,28.3,30.09,SE,131,2.7,3.1,21,0.00,,---,0.00,VWS V14.01,2013-07-18 04:18:00,
2013-07-17 21:23:00,69.3,29.4,30.09,ESE,120,2.2,2.2,22,0.00,,---,0.00,VWS V14.01,2013-07-18 04:23:00,
2013-07-17 21:29:00,68.7,28.9,30.09,ESE,120,0.0,2.2,22,0.00,,---,0.00,VWS V14.01,2013-07-18 04:29:00,
2013-07-17 21:35:00,68.0,28.3,30.09,NE,53,4.0,4.0,22,0.00,,---,0.00,VWS V14.01,2013-07-18 04:35:00,
2013-07-17 21:40:00,67.3,27.7,30.09,ENE,58,0.0,0.0,22,0.00,,---,0.00,VWS V14.01,2013-07-18 04:40:00,
2013-07-17 21:46:00,66.6,27.1,30.09,ENE,58,0.0,0.0,22,0.00,,---,0.00,VWS V14.01,2013-07-18 04:46:00,
2013-07-17 21:51:00,66.0,26.6,30.09,NNE,25,3.1,3.1,22,0.00,,---,0.00,VWS V14.01,2013-07-18 04:51:00,
2013-07-17 21:56:00,65.5,26.2,30.09,NNE,25,0.0,0.0,22,0.00,,---,0.00,VWS V14.01,2013-07-18 04:56:00,
2013-07-17 22:02:00,65.3,26.0,30.09,NNE,25,0.0,0.0,22,0.00,,---,0.00,VWS V14.01,2013-07-18 05:02:00,
2013-07-17 22:07:00,65.1,25.9,30.09,NNE,25,0.0,0.0,22,0.00,,---,0.00,VWS V14.01,2013-07-18 05:07:00,
2013-07-17 22:13:00,64.9,25.8,30.09,NNE,25,0.0,0.0,22,0.00,,---,0.00,VWS V14.01,2013-07-18 05:13:00,
2013-07-17 22:19:00,63.7,26.2,30.09,NE,39,0.0,0.0,24,0.00,,---,0.00,VWS V14.01,2013-07-18 05:19:00,
2013-07-17 22:25:00,62.8,25.5,30.09,NE,41,0.0,0.0,24,0.00,,---,0.00,VWS V14.01,2013-07-18 05:25:00,
2013-07-17 22:31:00,62.4,25.2,30.09,NE,41,0.0,0.0,24,0.00,,---,0.00,VWS V14.01,2013-07-18 05:31:00,
2013-07-17 22:37:00,62.2,25.0,30.12,ENE,73,0.0,0.0,24,0.00,,---,0.00,VWS V14.01,2013-07-18 05:37:00,
2013-07-17 22:42:00,62.1,24.9,30.12,East,98,0.0,0.0,24,0.00,,---,0.00,VWS V14.01,2013-07-18 05:42:00,
2013-07-17 22:47:00,61.7,24.6,30.12,ENE,69,0.0,0.0,24,0.00,,---,0.00,VWS V14.01,2013-07-18 05:47:00,
2013-07-17 22:53:00,61.2,24.1,30.12,ENE,69,0.0,0.0,24,0.00,,---,0.00,VWS V14.01,2013-07-18 05:53:00,
2013-07-17 22:59:00,60.8,23.8,30.12,ENE,69,0.0,0.0,24,0.00,,---,0.00,VWS V14.01,2013-07-18 05:59:00,
2013-07-17 23:05:00,60.3,24.8,30.12,ENE,69,0.0,0.0,26,0.00,,---,0.00,VWS V14.01,2013-07-18 06:05:00,
2013-07-17 23:10:00,60.3,24.8,30.09,ENE,69,0.0,0.0,26,0.00,,---,0.00,VWS V14.01,2013-07-18 06:10:00,
2013-07-17 23:16:00,59.9,24.5,30.09,ENE,69,0.0,0.0,26,0.00,,---,0.00,VWS V14.01,2013-07-18 06:16:00,
2013-07-17 23:21:00,59.5,24.2,30.09,ENE,69,0.0,0.0,26,0.00,,---,0.00,VWS V14.01,2013-07-18 06:21:00,
2013-07-17 23:27:00,58.8,23.6,30.09,ENE,69,0.0,0.0,26,0.00,,---,0.00,VWS V14.01,2013-07-18 06:27:00,
2013-07-17 23:32:00,58.5,23.3,30.09,ENE,69,0.0,0.0,26,0.00,,---,0.00,VWS V14.01,2013-07-18 06:32:00,
2013-07-17 23:38:00,58.5,23.3,30.09,ENE,69,0.0,0.0,26,0.00,,---,0.00,VWS V14.01,2013-07-18 06:38:00,
2013-07-17 23:43:00,58.5,23.3,30.09,ENE,69,0.0,0.0,26,0.00,,---,0.00,VWS V14.01,2013-07-18 06:43:00,
2013-07-17 23:49:00,58.1,23.0,30.09,SE,130,0.0,0.0,26,0.00,,---,0.00,VWS V14.01,2013-07-18 06:49:00,
2013-07-17 23:55:00,57.6,22.5,30.09,SE,130,0.0,0.0,26,0.00,,---,0.00,VWS V14.01,2013-07-18 06:55:00,